Time;durP1;ratioP1;P1;durP2;ratioP2;P2;SDS_P1;SDS_P2;PMS_P1;PMS_P2;Temp;Humidity;BMP_temperature;BMP_pressure;BME280_temperature;BME280_humidity;BME280_pressure;Samples;Min_cycle;Max_cycle;Signal;HPM_P1;HPM_P2
2023/04/07 00:00:34;;;;;;;37.72;25.45;;;;;;;7.79;100.00;101238.78;5063564;28;20056;-60
2023/04/07 00:03:05;;;;;;;38.88;26.55;;;;;;;7.75;100.00;101234.59;5064569;28;20052;-59
2023/04/07 00:05:34;;;;;;;42.95;26.92;;;;;;;7.76;100.00;101241.53;5061646;28;20047;-59
2023/04/07 00:08:02;;;;;;;43.40;26.58;;;;;;;7.74;100.00;101235.50;5058904;28;20436;-60
2023/04/07 00:10:32;;;;;;;40.90;26.17;;;;;;;7.80;100.00;101240.47;5064771;28;20094;-59
2023/04/07 00:13:00;;;;;;;43.92;27.33;;;;;;;7.78;100.00;101242.31;5058514;28;20101;-60
2023/04/07 00:15:29;;;;;;;42.28;25.70;;;;;;;7.77;100.00;101245.84;5064523;28;20115;-60
2023/04/07 00:17:57;;;;;;;44.15;27.50;;;;;;;7.78;100.00;101247.53;5063376;28;20447;-59
2023/04/07 00:20:25;;;;;;;46.15;27.30;;;;;;;7.77;100.00;101249.31;5059545;28;20048;-59
2023/04/07 00:22:53;;;;;;;46.92;26.40;;;;;;;7.79;100.00;101246.63;5058898;28;20102;-59
2023/04/07 00:25:21;;;;;;;43.42;26.55;;;;;;;7.79;100.00;101246.63;5056966;28;20064;-60
2023/04/07 00:27:51;;;;;;;38.53;22.75;;;;;;;7.78;100.00;101255.41;5060881;28;20044;-59
2023/04/07 00:30:19;;;;;;;44.90;23.95;;;;;;;7.78;100.00;101240.56;5062694;28;20087;-61
2023/04/07 00:32:47;;;;;;;43.53;22.65;;;;;;;7.73;100.00;101249.50;5059129;28;20064;-59
2023/04/07 00:35:16;;;;;;;43.55;23.63;;;;;;;7.77;100.00;101254.56;5058498;28;20515;-59
2023/04/07 00:37:44;;;;;;;40.70;23.15;;;;;;;7.79;100.00;101241.38;5059665;28;20446;-60
2023/04/07 00:40:12;;;;;;;39.45;22.10;;;;;;;7.79;100.00;101249.25;5065660;28;20568;-59
2023/04/07 00:42:40;;;;;;;40.20;21.50;;;;;;;7.77;100.00;101246.69;5070707;28;20134;-60
2023/04/07 00:45:11;;;;;;;38.95;22.67;;;;;;;7.79;100.00;101251.88;5061775;28;20068;-60
2023/04/07 00:47:39;;;;;;;37.20;21.15;;;;;;;7.84;100.00;101243.78;5059151;28;20113;-60
2023/04/07 00:50:09;;;;;;;37.40;20.08;;;;;;;7.80;100.00;101256.19;5060304;28;20139;-60
2023/04/07 00:52:37;;;;;;;40.60;21.30;;;;;;;7.79;100.00;101254.47;5062071;28;20122;-60
2023/04/07 00:55:06;;;;;;;38.50;20.13;;;;;;;7.76;100.00;101249.41;5059785;28;20506;-60
2023/04/07 00:57:34;;;;;;;41.47;21.13;;;;;;;7.80;100.00;101245.72;5063140;28;20090;-59
2023/04/07 01:00:04;;;;;;;36.03;19.85;;;;;;;7.77;100.00;101245.84;5064939;28;20068;-60
2023/04/07 01:02:41;;;;;;;;;;;;;;;7.76;100.00;101249.41;5062403;28;20090;-60
2023/04/07 01:05:16;;;;;;;38.83;18.58;;;;;;;7.73;100.00;101242.53;5059363;28;19968;-59
2023/04/07 01:07:52;;;;;;;36.88;19.45;;;;;;;7.73;100.00;101244.28;5063331;28;20052;-61
2023/04/07 01:10:27;;;;;;;35.53;19.60;;;;;;;7.77;100.00;101244.09;5064260;28;20048;-60
2023/04/07 01:13:02;;;;;;;37.83;19.00;;;;;;;7.73;100.00;101250.38;5066359;28;20055;-59
2023/04/07 01:15:32;;;;;;;34.53;18.13;;;;;;;7.74;100.00;101248.59;5055550;28;20052;-59
2023/04/07 01:18:13;;;;;;;36.35;19.10;;;;;;;7.70;100.00;101252.28;5061893;28;20185;-60
2023/04/07 01:20:46;;;;;;;35.90;18.45;;;;;;;7.69;100.00;101248.84;5055522;28;20411;-59
2023/04/07 01:23:26;;;;;;;32.58;18.48;;;;;;;7.74;100.00;101245.97;5058633;28;20407;-60
2023/04/07 01:26:04;;;;;;;37.38;18.05;;;;;;;7.71;100.00;101246.97;5058244;28;20161;-60
2023/04/07 01:29:04;;;;;;;39.10;16.95;;;;;;;7.68;100.00;101243.66;5073223;28;20491;-59
2023/04/07 01:31:37;;;;;;;35.00;16.77;;;;;;;7.65;100.00;101251.66;5072794;28;20497;-60
2023/04/07 01:34:09;;;;;;;34.22;16.92;;;;;;;7.69;100.00;101251.44;5049586;28;20072;-59
2023/04/07 01:36:38;;;;;;;32.25;16.27;;;;;;;7.68;100.00;101249.75;5050050;28;20052;-60
2023/04/07 01:39:07;;;;;;;34.17;16.95;;;;;;;7.67;100.00;101245.41;5050629;28;20051;-59
2023/04/07 01:41:36;;;;;;;33.00;16.60;;;;;;;7.70;100.00;101247.06;5050717;28;20052;-60
2023/04/07 01:44:06;;;;;;;34.08;16.67;;;;;;;7.72;100.00;101251.28;5053935;28;20045;-60
2023/04/07 01:46:36;;;;;;;35.38;16.60;;;;;;;7.63;100.00;101249.09;5068927;28;20041;-59
2023/04/07 01:49:05;;;;;;;35.63;17.05;;;;;;;7.67;100.00;101257.66;5069168;28;20110;-60
2023/04/07 01:51:34;;;;;;;32.90;16.48;;;;;;;7.68;100.00;101257.59;5069583;28;20044;-59
2023/04/07 01:54:04;;;;;;;35.40;16.85;;;;;;;7.66;100.00;101261.19;5069876;28;20054;-59
2023/04/07 01:56:33;;;;;;;32.95;15.73;;;;;;;7.70;100.00;101258.38;5069200;28;20053;-60
2023/04/07 01:59:01;;;;;;;33.53;16.55;;;;;;;7.70;100.00;101260.13;5061705;28;20041;-59
2023/04/07 02:01:29;;;;;;;29.77;15.45;;;;;;;7.73;100.00;101257.38;5058518;28;20056;-59
2023/04/07 02:04:06;;;;;;;33.28;15.48;;;;;;;7.75;100.00;101260.78;5060416;28;20047;-60
2023/04/07 02:06:41;;;;;;;31.55;15.98;;;;;;;7.77;100.00;101266.78;5061337;28;20063;-60
2023/04/07 02:09:13;;;;;;;24.48;11.90;;;;;;;7.75;100.00;101266.03;5057128;28;20040;-60
2023/04/07 02:11:43;;;;;;;23.50;11.98;;;;;;;7.65;100.00;101265.59;5060521;28;20059;-59
2023/04/07 02:14:13;;;;;;;19.92;12.38;;;;;;;7.62;100.00;101268.34;5059750;28;20494;-59
2023/04/07 02:16:42;;;;;;;23.92;12.32;;;;;;;7.66;100.00;101272.50;5059200;28;20128;-60
2023/04/07 02:19:15;;;;;;;28.70;12.85;;;;;;;7.60;100.00;101265.78;5060483;28;20041;-59
2023/04/07 02:21:45;;;;;;;29.55;13.77;;;;;;;7.59;100.00;101269.34;5058910;28;20048;-59
2023/04/07 02:24:13;;;;;;;28.27;13.48;;;;;;;7.63;100.00;101274.44;5054316;28;20053;-60
2023/04/07 02:26:42;;;;;;;30.17;13.57;;;;;;;7.63;100.00;101275.28;5058414;28;20052;-59
2023/04/07 02:29:11;;;;;;;26.88;13.88;;;;;;;7.64;100.00;101276.16;5057836;28;20408;-59
2023/04/07 02:31:39;;;;;;;27.40;13.82;;;;;;;7.66;100.00;101282.16;5055147;28;20060;-59
2023/04/07 02:34:07;;;;;;;29.30;14.48;;;;;;;7.67;100.00;101283.84;5057166;28;20053;-59
2023/04/07 02:36:37;;;;;;;26.23;14.02;;;;;;;7.66;100.00;101275.13;5056493;28;20098;-59
2023/04/07 02:39:05;;;;;;;25.75;13.35;;;;;;;7.68;100.00;101280.31;5058432;28;20033;-59
2023/04/07 02:41:33;;;;;;;29.20;14.95;;;;;;;7.64;100.00;101271.75;5060650;28;20480;-60
2023/04/07 02:44:01;;;;;;;28.98;14.25;;;;;;;7.60;100.00;101272.81;5054779;28;20045;-59
2023/04/07 02:46:29;;;;;;;30.55;14.27;;;;;;;7.59;100.00;101277.22;5063069;28;20098;-59
2023/04/07 02:48:58;;;;;;;26.83;14.02;;;;;;;7.60;100.00;101278.88;5067395;28;20080;-59
2023/04/07 02:51:26;;;;;;;29.42;14.77;;;;;;;7.65;100.00;101275.22;5056258;28;20546;-59
2023/04/07 02:53:55;;;;;;;30.92;13.73;;;;;;;7.55;100.00;101278.28;5061134;28;20487;-60
2023/04/07 02:56:24;;;;;;;31.08;15.30;;;;;;;7.52;100.00;101281.00;5053403;28;20036;-59
2023/04/07 02:58:52;;;;;;;26.38;13.07;;;;;;;7.52;100.00;101290.63;5056480;28;20071;-60
2023/04/07 03:01:20;;;;;;;27.75;13.65;;;;;;;7.54;100.00;101288.78;5061957;28;20044;-60
2023/04/07 03:03:48;;;;;;;23.60;12.77;;;;;;;7.56;100.00;101290.41;5059771;28;20542;-60
2023/04/07 03:06:17;;;;;;;25.13;13.68;;;;;;;7.59;100.00;101297.28;5062654;28;20426;-60
2023/04/07 03:08:45;;;;;;;25.90;13.38;;;;;;;7.55;100.00;101295.72;5063376;28;20079;-60
2023/04/07 03:11:15;;;;;;;26.05;12.68;;;;;;;7.53;100.00;101298.41;5063387;28;20098;-60
2023/04/07 03:13:43;;;;;;;28.48;13.75;;;;;;;7.54;100.00;101301.88;5071292;28;20456;-60
2023/04/07 03:16:11;;;;;;;28.13;12.93;;;;;;;7.56;100.00;101298.25;5091383;28;20052;-60
2023/04/07 03:18:39;;;;;;;25.88;13.40;;;;;;;7.55;100.00;101290.50;5068522;28;20582;-59
2023/04/07 03:21:07;;;;;;;24.30;12.98;;;;;;;7.48;100.00;101295.16;5072961;28;20032;-59
2023/04/07 03:23:35;;;;;;;29.60;13.55;;;;;;;7.47;100.00;101287.38;5073788;28;20060;-58
2023/04/07 03:26:04;;;;;;;27.67;13.43;;;;;;;7.49;100.00;101294.25;5072886;28;20090;-59
2023/04/07 03:28:33;;;;;;;27.67;12.65;;;;;;;7.52;100.00;101296.72;5070156;28;20044;-60
2023/04/07 03:31:01;;;;;;;26.30;13.38;;;;;;;7.54;100.00;101294.00;5071984;28;20898;-59
2023/04/07 03:33:29;;;;;;;24.63;12.35;;;;;;;7.51;100.00;101296.78;5075714;28;20040;-59
2023/04/07 03:35:57;;;;;;;24.33;11.23;;;;;;;7.45;100.00;101297.91;5074382;28;20529;-59
2023/04/07 03:38:26;;;;;;;21.27;10.30;;;;;;;7.48;100.00;101295.16;5074391;28;20102;-59
2023/04/07 03:40:54;;;;;;;24.25;11.60;;;;;;;7.42;100.00;101292.81;5073594;28;20040;-59
2023/04/07 03:43:22;;;;;;;22.38;9.27;;;;;;;7.43;100.00;101289.25;5068754;28;20445;-59
2023/04/07 03:45:53;;;;;;;18.00;10.38;;;;;;;7.47;100.00;101292.59;5056024;28;20063;-60
2023/04/07 03:48:21;;;;;;;21.83;10.48;;;;;;;7.47;100.00;101293.44;5058079;28;20053;-59
2023/04/07 03:50:49;;;;;;;20.75;10.63;;;;;;;7.49;100.00;101291.63;5058032;28;20079;-60
2023/04/07 03:53:18;;;;;;;22.95;9.98;;;;;;;7.50;100.00;101295.06;5058351;28;20041;-59
2023/04/07 03:55:46;;;;;;;20.35;9.50;;;;;;;7.54;100.00;101296.63;5058787;28;20049;-58
2023/04/07 03:58:14;;;;;;;21.40;10.05;;;;;;;7.54;100.00;101294.88;5059118;28;20056;-59
2023/04/07 04:00:42;;;;;;;17.92;10.00;;;;;;;7.55;100.00;101300.97;5063041;28;20052;-58
2023/04/07 04:03:12;;;;;;;18.30;10.10;;;;;;;7.51;100.00;101300.25;5054644;28;20051;-59
2023/04/07 04:05:40;;;;;;;22.92;10.68;;;;;;;7.52;100.00;101306.34;5054528;28;20460;-59
2023/04/07 04:08:08;;;;;;;21.83;11.68;;;;;;;7.44;100.00;101301.44;5060692;28;20053;-59
2023/04/07 04:10:36;;;;;;;26.08;11.27;;;;;;;7.45;100.00;101300.53;5055485;28;20057;-59
2023/04/07 04:13:08;;;;;;;26.30;11.07;;;;;;;7.49;100.00;101309.09;5055239;28;20059;-59
2023/04/07 04:15:36;;;;;;;24.65;11.73;;;;;;;7.50;100.00;101311.66;5057200;28;20041;-59
2023/04/07 04:18:04;;;;;;;21.38;11.48;;;;;;;7.43;100.00;101310.19;5054419;28;20036;-59
2023/04/07 04:20:33;;;;;;;23.30;11.40;;;;;;;7.50;100.00;101313.41;5059038;28;20098;-59
2023/04/07 04:23:02;;;;;;;23.52;11.18;;;;;;;7.53;100.00;101313.28;5059273;28;20048;-59
2023/04/07 04:25:32;;;;;;;22.30;11.55;;;;;;;7.54;100.00;101317.56;5054922;28;20404;-59
2023/04/07 04:28:00;;;;;;;24.45;11.85;;;;;;;7.56;100.00;101308.72;5062913;28;20052;-58
2023/04/07 04:30:29;;;;;;;31.05;13.88;;;;;;;7.48;100.00;101313.47;5053825;28;20102;-59
2023/04/07 04:32:57;;;;;;;28.15;14.27;;;;;;;7.47;100.00;101319.63;5059462;28;20080;-58
2023/04/07 04:35:26;;;;;;;24.75;13.57;;;;;;;7.49;100.00;101314.34;5057044;28;20091;-58
2023/04/07 04:37:57;;;;;;;25.65;14.13;;;;;;;7.53;100.00;101319.34;5056477;28;20048;-59
2023/04/07 04:40:25;;;;;;;28.50;14.32;;;;;;;7.55;100.00;101325.38;5054657;28;21078;-59
2023/04/07 04:42:53;;;;;;;27.02;14.40;;;;;;;7.57;100.00;101320.91;5058243;28;20531;-59
2023/04/07 04:45:22;;;;;;;27.77;14.90;;;;;;;7.60;100.00;101318.16;5060408;28;20389;-59
2023/04/07 04:47:50;;;;;;;29.08;14.60;;;;;;;7.59;100.00;101329.56;5056992;28;20508;-58
2023/04/07 04:50:18;;;;;;;30.95;15.25;;;;;;;7.59;100.00;101326.94;5060185;28;20045;-59
2023/04/07 04:52:46;;;;;;;34.20;15.73;;;;;;;7.60;100.00;101328.63;5055175;28;20040;-59
2023/04/07 04:55:16;;;;;;;33.42;15.93;;;;;;;7.61;100.00;101330.31;5058341;28;20140;-58
2023/04/07 04:57:44;;;;;;;30.63;15.07;;;;;;;7.48;100.00;101337.03;5057262;28;20121;-59
2023/04/07 05:00:13;;;;;;;26.08;14.13;;;;;;;7.51;100.00;101336.91;5056389;28;20046;-59
2023/04/07 05:02:42;;;;;;;27.75;14.45;;;;;;;7.53;100.00;101337.69;5056050;28;20056;-59
2023/04/07 05:05:10;;;;;;;29.90;13.25;;;;;;;7.57;100.00;101341.84;5053418;28;20040;-59
2023/04/07 05:07:39;;;;;;;23.15;12.48;;;;;;;7.54;100.00;101342.00;5052491;28;20044;-59
2023/04/07 05:10:08;;;;;;;23.58;13.10;;;;;;;7.59;100.00;101341.78;5053985;28;20449;-59
2023/04/07 05:12:38;;;;;;;22.27;12.35;;;;;;;7.54;100.00;101342.00;5052924;28;20057;-58
2023/04/07 05:15:07;;;;;;;28.65;14.23;;;;;;;7.56;100.00;101345.38;5054411;28;20048;-59
2023/04/07 05:17:36;;;;;;;26.48;12.95;;;;;;;7.56;100.00;101347.16;5051885;28;20503;-59
2023/04/07 05:20:09;;;;;;;25.10;13.95;;;;;;;7.60;100.00;101346.94;5055926;28;20029;-59
2023/04/07 05:22:37;;;;;;;30.48;13.85;;;;;;;7.61;100.00;101348.66;5051052;28;20511;-58
2023/04/07 05:25:06;;;;;;;28.48;14.55;;;;;;;7.64;100.00;101347.66;5059421;28;20106;-58
2023/04/07 05:27:34;;;;;;;27.90;13.80;;;;;;;7.61;100.00;101347.81;5053160;28;20049;-59
2023/04/07 05:30:05;;;;;;;28.45;13.68;;;;;;;7.54;100.00;101347.25;5056091;28;20072;-58
2023/04/07 05:32:33;;;;;;;24.48;13.00;;;;;;;7.57;100.00;101348.88;5055659;28;20526;-59
2023/04/07 05:35:01;;;;;;;24.15;12.68;;;;;;;7.56;100.00;101348.00;5057677;28;20047;-59
2023/04/07 05:37:29;;;;;;;27.13;14.05;;;;;;;7.59;100.00;101354.88;5054761;28;20044;-59
2023/04/07 05:39:57;;;;;;;23.08;12.65;;;;;;;7.60;100.00;101359.19;5052877;28;20557;-58
2023/04/07 05:42:25;;;;;;;22.80;11.70;;;;;;;7.61;100.00;101360.91;5060529;28;20055;-60
2023/04/07 05:44:53;;;;;;;25.15;11.75;;;;;;;7.56;100.00;101358.47;5054116;28;20049;-58
2023/04/07 05:47:23;;;;;;;24.90;11.30;;;;;;;7.52;100.00;101359.53;5056976;28;20405;-59
2023/04/07 05:49:51;;;;;;;25.38;11.07;;;;;;;7.49;100.00;101364.91;5054601;28;20049;-59
2023/04/07 05:52:19;;;;;;;19.00;10.32;;;;;;;7.51;100.00;101367.44;5053472;28;20052;-59
2023/04/07 05:54:48;;;;;;;25.65;12.40;;;;;;;7.45;100.00;101368.56;5058514;28;20044;-59
2023/04/07 05:57:16;;;;;;;23.58;12.18;;;;;;;7.49;100.00;101371.91;5054137;28;20037;-59
2023/04/07 05:59:44;;;;;;;22.75;11.45;;;;;;;7.50;100.00;101366.63;5060112;28;20435;-58
2023/04/07 06:02:13;;;;;;;25.08;11.40;;;;;;;7.50;100.00;101370.97;5048266;28;20045;-59
2023/04/07 06:04:43;;;;;;;20.33;11.70;;;;;;;7.54;100.00;101372.53;5053447;28;20128;-59
2023/04/07 06:07:11;;;;;;;23.35;11.90;;;;;;;7.55;100.00;101375.13;5053049;28;20408;-59
2023/04/07 06:09:41;;;;;;;22.35;11.27;;;;;;;7.59;100.00;101381.03;5059436;28;20059;-58
2023/04/07 06:12:11;;;;;;;26.17;11.82;;;;;;;7.63;100.00;101380.00;5053349;28;20047;-59
2023/04/07 06:14:39;;;;;;;21.40;11.70;;;;;;;7.66;100.00;101379.00;5053606;28;20048;-59
2023/04/07 06:17:07;;;;;;;27.17;12.15;;;;;;;7.63;100.00;101381.78;5056070;28;20067;-59
2023/04/07 06:19:35;;;;;;;20.05;11.80;;;;;;;7.63;100.00;101381.78;5052891;28;20304;-59
2023/04/07 06:22:05;;;;;;;22.42;11.90;;;;;;;7.61;100.00;101377.44;5049113;28;20544;-59
2023/04/07 06:24:33;;;;;;;27.95;12.55;;;;;;;7.62;100.00;101386.13;5052230;28;20041;-60
2023/04/07 06:27:03;;;;;;;25.08;13.13;;;;;;;7.63;100.00;101387.84;5053416;28;20106;-60
2023/04/07 06:29:33;;;;;;;22.77;12.82;;;;;;;7.66;100.00;101381.63;5052314;28;20045;-59
2023/04/07 06:32:01;;;;;;;27.77;13.38;;;;;;;7.72;100.00;101391.84;5054748;28;20547;-59
2023/04/07 06:34:29;;;;;;;22.45;13.13;;;;;;;7.68;100.00;101396.34;5054658;28;20118;-59
2023/04/07 06:36:57;;;;;;;22.02;11.88;;;;;;;7.63;100.00;101392.25;5058088;28;20047;-59
2023/04/07 06:39:28;;;;;;;21.88;11.07;;;;;;;7.65;100.00;101400.88;5061886;28;20040;-59
2023/04/07 06:41:56;;;;;;;24.70;10.70;;;;;;;7.68;100.00;101396.34;5060565;28;20041;-58
2023/04/07 06:44:27;;;;;;;20.45;10.57;;;;;;;7.73;100.00;101401.38;5057719;28;20417;-59
2023/04/07 06:46:55;;;;;;;18.17;10.32;;;;;;;7.73;100.00;101401.38;5059167;28;20043;-59
2023/04/07 06:49:23;;;;;;;22.15;9.75;;;;;;;7.74;100.00;101406.56;5066617;28;20475;-59
2023/04/07 06:51:51;;;;;;;21.75;9.32;;;;;;;7.76;100.00;101403.88;5065068;28;21007;-59
2023/04/07 06:54:20;;;;;;;17.02;9.57;;;;;;;7.77;100.00;101408.19;5066906;28;20049;-59
2023/04/07 06:56:50;;;;;;;17.38;9.57;;;;;;;7.83;100.00;101410.53;5072202;28;20044;-59
2023/04/07 06:59:20;;;;;;;;;;;;;;;7.86;100.00;101418.25;5077046;28;20062;-59
2023/04/07 07:01:49;;;;;;;19.65;10.73;;;;;;;7.84;100.00;101411.38;5072282;28;19974;-59
2023/04/07 07:04:17;;;;;;;19.10;9.82;;;;;;;7.88;100.00;101418.19;5072651;28;20075;-59
2023/04/07 07:06:45;;;;;;;20.88;9.27;;;;;;;7.85;100.00;101421.78;5072413;28;20059;-59
2023/04/07 07:09:13;;;;;;;19.55;8.70;;;;;;;7.91;100.00;101421.53;5073805;28;20059;-59
2023/04/07 07:11:41;;;;;;;19.42;8.32;;;;;;;7.94;100.00;101421.38;5067075;28;20147;-59
2023/04/07 07:14:11;;;;;;;16.67;8.00;;;;;;;8.00;100.00;101419.41;5072218;28;20040;-60
2023/04/07 07:16:40;;;;;;;17.25;8.07;;;;;;;8.06;100.00;101429.63;5072595;28;20048;-59
2023/04/07 07:19:08;;;;;;;15.65;7.28;;;;;;;8.11;100.00;101425.00;5072681;28;20074;-59
2023/04/07 07:21:36;;;;;;;14.00;7.65;;;;;;;8.10;100.00;101433.81;5075739;28;20052;-59
2023/04/07 07:24:05;;;;;;;15.50;7.85;;;;;;;8.11;100.00;101440.72;5075774;28;20044;-58
2023/04/07 07:26:33;;;;;;;18.95;8.68;;;;;;;8.19;100.00;101441.22;5070682;28;20145;-59
2023/04/07 07:29:01;;;;;;;19.92;7.88;;;;;;;8.22;100.00;101437.63;5062912;28;20048;-59
2023/04/07 07:31:31;;;;;;;16.58;7.50;;;;;;;8.26;100.00;101442.66;5074114;28;20074;-59
2023/04/07 07:33:59;;;;;;;17.52;7.65;;;;;;;8.31;100.00;101441.59;5071641;28;20061;-59
2023/04/07 07:36:27;;;;;;;15.48;6.75;;;;;;;8.31;100.00;101438.97;5069266;28;20537;-60
2023/04/07 07:38:55;;;;;;;14.07;7.05;;;;;;;8.25;100.00;101445.34;5057877;28;20561;-59
2023/04/07 07:41:23;;;;;;;14.35;6.78;;;;;;;8.25;100.00;101446.19;5066579;28;20395;-59
2023/04/07 07:43:51;;;;;;;15.30;7.30;;;;;;;8.28;100.00;101443.44;5058797;28;20067;-59
2023/04/07 07:46:19;;;;;;;14.15;7.00;;;;;;;8.27;100.00;101449.59;5060208;28;20068;-60
2023/04/07 07:48:49;;;;;;;12.10;6.82;;;;;;;8.30;100.00;101453.84;5059569;28;20049;-60
2023/04/07 07:51:18;;;;;;;11.20;5.57;;;;;;;8.21;100.00;101451.66;5064414;28;20049;-59
2023/04/07 07:53:46;;;;;;;11.18;5.88;;;;;;;8.27;100.00;101452.19;5062775;28;20049;-58
2023/04/07 07:56:14;;;;;;;10.65;5.85;;;;;;;8.35;100.00;101457.09;5060034;28;20687;-59
2023/04/07 07:58:42;;;;;;;13.57;5.80;;;;;;;8.39;100.00;101456.03;5059983;28;20511;-58
2023/04/07 08:01:10;;;;;;;13.27;5.70;;;;;;;8.44;100.00;101456.69;5059866;28;20457;-59
2023/04/07 08:03:38;;;;;;;12.73;6.20;;;;;;;8.45;100.00;101460.19;5061397;28;20103;-59
2023/04/07 08:06:08;;;;;;;11.10;5.15;;;;;;;8.45;100.00;101465.41;5065267;28;20047;-59
2023/04/07 08:08:36;;;;;;;10.25;5.60;;;;;;;8.53;100.00;101463.28;5061491;28;20044;-59
2023/04/07 08:11:07;;;;;;;10.82;5.32;;;;;;;8.61;100.00;101466.41;5057760;28;20037;-60
2023/04/07 08:13:38;;;;;;;11.65;5.10;;;;;;;8.70;100.00;101474.75;5057486;28;20068;-60
2023/04/07 08:16:07;;;;;;;10.88;5.47;;;;;;;8.76;100.00;101467.44;5051229;28;20076;-60
2023/04/07 08:18:35;;;;;;;11.43;5.07;;;;;;;8.79;100.00;101469.94;5054575;28;20048;-60
2023/04/07 08:21:04;;;;;;;11.82;4.78;;;;;;;8.77;100.00;101478.81;5051091;28;20110;-59
2023/04/07 08:23:34;;;;;;;9.07;4.18;;;;;;;8.78;100.00;101485.72;5058157;28;20102;-60
2023/04/07 08:26:02;;;;;;;8.00;3.53;;;;;;;8.77;100.00;101486.69;5061745;28;20056;-60
2023/04/07 08:28:30;;;;;;;8.23;4.18;;;;;;;8.86;100.00;101488.00;5058691;28;20040;-60
2023/04/07 08:30:58;;;;;;;10.77;5.00;;;;;;;8.91;100.00;101492.09;5062164;28;20110;-60
2023/04/07 08:33:26;;;;;;;10.43;5.20;;;;;;;8.92;100.00;101491.19;5059137;28;20500;-59
2023/04/07 08:35:54;;;;;;;9.38;4.28;;;;;;;8.92;100.00;101490.34;5057828;28;20115;-59
2023/04/07 08:38:22;;;;;;;8.55;3.65;;;;;;;8.96;100.00;101492.72;5055037;28;20042;-59
2023/04/07 08:40:58;;;;;;;9.95;4.07;;;;;;;9.00;100.00;101497.81;5057804;28;20099;-59
2023/04/07 08:43:27;;;;;;;11.82;4.75;;;;;;;9.02;100.00;101506.50;5065483;28;20041;-60
2023/04/07 08:45:57;;;;;;;7.60;3.83;;;;;;;9.08;100.00;101499.19;5061804;28;20210;-60
2023/04/07 08:48:28;;;;;;;10.85;4.60;;;;;;;9.07;100.00;101509.75;5063612;28;20056;-60
2023/04/07 08:50:58;;;;;;;8.13;3.42;;;;;;;8.96;100.00;101511.09;5057438;28;20049;-60
2023/04/07 08:53:31;;;;;;;8.95;4.10;;;;;;;8.92;100.00;101511.34;5059241;28;20075;-59
2023/04/07 08:56:01;;;;;;;8.02;3.95;;;;;;;8.94;100.00;101512.97;5056997;28;20068;-59
2023/04/07 08:58:30;;;;;;;10.80;4.40;;;;;;;8.91;100.00;101515.72;5054224;28;20045;-59
2023/04/07 09:00:59;;;;;;;9.43;4.25;;;;;;;8.88;100.00;101518.47;5062434;28;20123;-59
2023/04/07 09:03:27;;;;;;;9.98;4.70;;;;;;;8.91;100.00;101522.75;5063668;28;20495;-59
2023/04/07 09:05:56;;;;;;;9.18;4.70;;;;;;;9.00;100.00;101518.81;5065761;28;20036;-59
2023/04/07 09:08:25;;;;;;;11.98;5.20;;;;;;;8.97;100.00;101530.31;5069175;28;20053;-59
2023/04/07 09:10:53;;;;;;;14.27;7.10;;;;;;;8.93;100.00;101519.13;5059742;28;20056;-59
2023/04/07 09:13:24;;;;;;;13.32;5.95;;;;;;;8.83;100.00;101523.09;5059534;28;20048;-59
2023/04/07 09:15:52;;;;;;;9.57;4.97;;;;;;;8.84;100.00;101527.41;5056692;28;20101;-59
2023/04/07 09:18:20;;;;;;;10.98;6.80;;;;;;;8.70;100.00;101527.19;5055995;28;20048;-59
2023/04/07 09:20:56;;;;;;;11.18;6.15;;;;;;;8.72;100.00;101528.00;5054225;28;20049;-59
2023/04/07 09:23:30;;;;;;;12.18;5.72;;;;;;;8.83;100.00;101533.59;5057145;28;20063;-59
2023/04/07 09:26:00;;;;;;;14.00;5.55;;;;;;;8.86;100.00;101530.84;5059874;28;20055;-59
2023/04/07 09:28:46;;;;;;;13.23;6.28;;;;;;;8.93;100.00;101534.88;5062146;28;20036;-59
2023/04/07 09:31:14;;;;;;;12.18;5.95;;;;;;;8.98;100.00;101541.66;5066815;28;20507;-59
2023/04/07 09:33:45;;;;;;;12.52;5.47;;;;;;;9.02;100.00;101537.97;5069546;28;20041;-59
2023/04/07 09:36:13;;;;;;;14.38;6.30;;;;;;;9.08;100.00;101532.41;5060840;28;20486;-59
2023/04/07 09:38:43;;;;;;;11.18;6.00;;;;;;;9.10;100.00;101535.84;5058455;28;20055;-58
2023/04/07 09:41:13;;;;;;;12.65;5.85;;;;;;;9.08;100.00;101535.91;5063647;28;20491;-59
2023/04/07 09:43:43;;;;;;;12.75;6.22;;;;;;;9.12;100.00;101541.84;5064420;28;20052;-59
2023/04/07 09:46:14;;;;;;;13.70;6.55;;;;;;;9.17;100.00;101534.59;5069147;28;20052;-59
2023/04/07 09:48:46;;;;;;;14.02;6.53;;;;;;;9.16;100.00;101539.94;5069483;28;20052;-59
2023/04/07 09:51:16;;;;;;;10.82;7.00;;;;;;;9.09;100.00;101542.88;5069779;28;20458;-58
2023/04/07 09:53:50;;;;;;;12.55;6.60;;;;;;;9.20;100.00;101542.31;5063258;28;20483;-59
2023/04/07 09:56:21;;;;;;;15.00;7.25;;;;;;;9.28;100.00;101540.22;5057884;28;20121;-59
2023/04/07 09:58:50;;;;;;;12.85;6.60;;;;;;;9.28;100.00;101549.84;5062476;28;20044;-59
2023/04/07 10:01:21;;;;;;;12.52;6.63;;;;;;;9.26;100.00;101542.03;5068938;28;20447;-59
2023/04/07 10:03:51;;;;;;;11.45;5.70;;;;;;;9.24;100.00;101550.91;5059055;28;20490;-60
2023/04/07 10:06:20;;;;;;;15.68;6.85;;;;;;;9.17;100.00;101544.25;5055538;28;20060;-60
2023/04/07 10:08:48;;;;;;;13.45;5.93;;;;;;;9.07;100.00;101544.69;5061890;28;20090;-59
2023/04/07 10:11:17;;;;;;;15.90;6.60;;;;;;;9.07;100.00;101546.47;5063043;28;21624;-59
2023/04/07 10:13:48;;;;;;;16.83;7.25;;;;;;;9.16;100.00;101550.44;5061497;28;20051;-60
2023/04/07 10:16:17;;;;;;;24.15;7.78;;;;;;;9.18;100.00;101548.59;5057974;28;20086;-59
2023/04/07 10:18:46;;;;;;;16.63;6.95;;;;;;;9.28;100.00;101558.59;5056634;28;20771;-60
2023/04/07 10:21:16;;;;;;;9.85;5.72;;;;;;;9.35;100.00;101551.22;5056230;28;20052;-59
2023/04/07 10:23:52;;;;;;;13.50;5.72;;;;;;;9.37;100.00;101559.06;5057851;28;20040;-60
2023/04/07 10:26:25;;;;;;;12.07;4.90;;;;;;;9.40;100.00;101557.13;5055933;28;20045;-59
2023/04/07 10:29:00;;;;;;;12.00;5.40;;;;;;;9.32;100.00;101561.06;5056997;28;20044;-60
2023/04/07 10:31:29;;;;;;;10.35;5.10;;;;;;;9.26;100.00;101562.19;5059969;28;20032;-60
2023/04/07 10:33:58;;;;;;;11.85;5.55;;;;;;;9.28;100.00;101555.97;5054153;28;20063;-60
2023/04/07 10:36:28;;;;;;;12.00;5.22;;;;;;;9.41;100.00;101555.34;5059702;28;20121;-59
2023/04/07 10:39:20;;;;;;;11.82;5.47;;;;;;;9.39;100.00;101571.16;5063960;28;20125;-59
2023/04/07 10:41:48;;;;;;;22.03;7.43;;;;;;;9.40;100.00;101567.63;5053011;28;20454;-59
2023/04/07 10:44:48;;;;;;;14.70;6.47;;;;;;;9.36;100.00;101567.84;5062531;28;20090;-60
2023/04/07 10:47:17;;;;;;;17.95;6.70;;;;;;;9.36;100.00;101586.22;5053359;28;20053;-59
2023/04/07 10:50:18;;;;;;;13.32;5.88;;;;;;;9.41;100.00;101571.94;5058756;28;20055;-59
2023/04/07 10:52:47;;;;;;;13.38;5.93;;;;;;;9.43;100.00;101574.50;5060482;28;20140;-59
2023/04/07 10:55:36;;;;;;;13.43;6.30;;;;;;;9.35;100.00;101576.63;5061449;28;20479;-59
2023/04/07 10:58:28;;;;;;;12.07;5.68;;;;;;;9.42;100.00;101578.03;5059205;28;20128;-59
2023/04/07 11:01:19;;;;;;;11.43;5.60;;;;;;;9.51;100.00;101579.38;5035143;28;20045;-59
2023/04/07 11:03:59;;;;;;;15.13;6.07;;;;;;;9.54;100.00;101585.31;5058310;28;20559;-59
2023/04/07 11:06:30;;;;;;;13.82;6.43;;;;;;;9.54;100.00;101582.69;5061878;28;20120;-59
2023/04/07 11:08:58;;;;;;;12.63;5.32;;;;;;;9.59;100.00;101585.09;5064365;28;20131;-60
2023/04/07 11:11:38;;;;;;;12.52;5.22;;;;;;;9.59;100.00;101579.84;5059469;28;20040;-59
2023/04/07 11:14:06;;;;;;;17.45;7.25;;;;;;;9.55;100.00;101586.19;5057823;28;20033;-60
2023/04/07 11:16:39;;;;;;;19.73;6.15;;;;;;;9.62;100.00;101582.31;5054390;28;20562;-59
2023/04/07 11:19:08;;;;;;;14.48;5.68;;;;;;;9.46;100.00;101590.97;5054526;28;20056;-59
2023/04/07 11:21:37;;;;;;;9.88;5.05;;;;;;;9.37;100.00;101596.66;5061245;28;20048;-59
2023/04/07 11:24:06;;;;;;;9.63;4.25;;;;;;;9.47;100.00;101597.91;5061171;28;20068;-59
2023/04/07 11:26:41;;;;;;;11.63;5.38;;;;;;;9.46;100.00;101597.97;5063875;28;20040;-59